CPX674 Details

Departure: Lynden Pindling International Airport (MYNN)
Arrival: Grand Bahama International Airport (MYGF)
Route: PEACH BR65V ZFP


Current Weather Information
MYNN 221200Z 34013KT 9999 FEW018 SCT035 22/15 A3002
MYGF 221200Z 33010KT 9999 FEW035 19/12 A3002